Time;durP1;ratioP1;P1;durP2;ratioP2;P2;SDS_P1;SDS_P2;PMS_P1;PMS_P2;Temp;Humidity;BMP_temperature;BMP_pressure;BME280_temperature;BME280_humidity;BME280_pressure;Samples;Min_cycle;Max_cycle;Signal;HPM_P1;HPM_P2
2022/12/13 00:01:40;;;;;;;20.33;10.80;;;;;;;-6.35;77.34;94757.44;4985806;28;20277;-80
2022/12/13 00:04:06;;;;;;;17.77;11.27;;;;;;;-6.36;77.96;94751.56;4993007;28;20248;-81
2022/12/13 00:06:32;;;;;;;18.30;10.43;;;;;;;-6.33;77.51;94751.41;4977322;28;20177;-79
2022/12/13 00:08:58;;;;;;;17.67;10.60;;;;;;;-6.29;77.67;94752.91;4995690;28;20732;-80
2022/12/13 00:11:24;;;;;;;16.57;10.67;;;;;;;-6.34;77.18;94751.47;4976690;28;20223;-80
2022/12/13 00:13:49;;;;;;;18.53;9.97;;;;;;;-6.39;77.08;94751.66;4988782;28;20254;-81
2022/12/13 00:16:16;;;;;;;15.80;9.77;;;;;;;-6.37;77.91;94754.13;4983211;28;20224;-81
2022/12/13 00:18:42;;;;;;;16.80;10.97;;;;;;;-6.40;77.78;94756.78;4995023;28;20193;-80
2022/12/13 00:21:10;;;;;;;15.67;9.87;;;;;;;-6.39;78.00;94748.31;4975881;28;20649;-79
2022/12/13 00:23:35;;;;;;;18.37;10.90;;;;;;;-6.51;79.05;94744.63;4989083;28;20187;-81
2022/12/13 00:26:05;;;;;;;20.17;11.70;;;;;;;-6.45;78.60;94756.16;4978835;28;20230;-80
2022/12/13 00:28:31;;;;;;;20.97;12.07;;;;;;;-6.42;79.35;94756.84;4999106;28;20218;-80
2022/12/13 00:30:58;;;;;;;18.00;11.30;;;;;;;-6.41;78.74;94752.63;5000905;28;20211;-79
2022/12/13 00:33:24;;;;;;;18.40;11.20;;;;;;;-6.40;79.39;94752.56;4994050;28;20192;-80
2022/12/13 00:35:49;;;;;;;22.30;12.47;;;;;;;-6.45;78.85;94751.09;5009683;28;20208;-79
2022/12/13 00:38:14;;;;;;;20.47;12.00;;;;;;;-6.43;79.33;94751.88;4991114;28;20242;-79
2022/12/13 00:40:39;;;;;;;17.97;11.17;;;;;;;-6.44;78.95;94753.59;4987656;28;20207;-81
2022/12/13 00:43:05;;;;;;;17.33;11.13;;;;;;;-6.56;79.57;94744.81;4994536;28;20193;-80
2022/12/13 00:45:31;;;;;;;21.53;12.70;;;;;;;-6.52;79.00;94748.03;4973247;28;20211;-80
2022/12/13 00:47:57;;;;;;;20.83;12.20;;;;;;;-6.53;79.43;94738.00;4988927;28;20188;-80
2022/12/13 00:50:22;;;;;;;18.27;11.47;;;;;;;-6.59;80.62;94731.50;4982496;28;20678;-80
2022/12/13 00:52:47;;;;;;;20.57;11.93;;;;;;;-6.50;79.55;94725.22;4995258;28;20179;-81
2022/12/13 00:55:13;;;;;;;18.43;12.27;;;;;;;-6.51;80.11;94716.84;4998045;28;20222;-80
2022/12/13 00:57:38;;;;;;;21.47;12.10;;;;;;;-6.53;80.01;94717.78;4999964;28;20214;-81
2022/12/13 01:00:04;;;;;;;20.73;12.77;;;;;;;-6.51;80.10;94713.50;4992195;28;20195;-80
2022/12/13 01:02:29;;;;;;;20.87;12.30;;;;;;;-6.55;80.74;94720.38;4991684;28;20216;-80
2022/12/13 01:04:54;;;;;;;21.77;13.30;;;;;;;-6.62;81.27;94713.97;4973039;28;20632;-79
2022/12/13 01:07:20;;;;;;;22.20;13.23;;;;;;;-6.75;82.34;94706.06;4994857;28;20199;-81
2022/12/13 01:09:45;;;;;;;20.77;13.83;;;;;;;-6.83;82.47;94700.53;4975764;28;20199;-79
2022/12/13 01:12:10;;;;;;;25.57;14.77;;;;;;;-6.81;83.07;94697.94;4973745;28;20214;-82
2022/12/13 01:14:37;;;;;;;21.33;13.70;;;;;;;-6.64;82.42;94708.13;4985808;28;20793;-78
2022/12/13 01:17:03;;;;;;;24.53;14.50;;;;;;;-6.61;81.63;94710.53;4974944;28;20810;-80
2022/12/13 01:19:30;;;;;;;23.97;14.57;;;;;;;-6.54;81.75;94723.72;4999135;28;20217;-81
2022/12/13 01:21:56;;;;;;;26.17;15.43;;;;;;;-6.61;81.10;94716.41;4984760;28;20816;-79
2022/12/13 01:24:23;;;;;;;30.70;14.87;;;;;;;-6.58;81.39;94718.81;4991641;28;20226;-81
2022/12/13 01:26:49;;;;;;;26.63;14.00;;;;;;;-6.61;81.91;94716.41;4999141;28;20188;-83
2022/12/13 01:29:15;;;;;;;20.73;13.77;;;;;;;-6.57;81.74;94715.38;4992749;28;20616;-81
2022/12/13 01:31:40;;;;;;;27.97;15.03;;;;;;;-6.60;81.35;94713.00;4998791;28;20231;-80
2022/12/13 01:34:17;;;;;;;23.73;15.00;;;;;;;-6.53;81.06;94715.28;4991564;28;20221;-81
2022/12/13 01:36:44;;;;;;;29.07;15.23;;;;;;;-6.67;81.24;94714.13;4980483;28;20687;-80
2022/12/13 01:39:12;;;;;;;27.70;16.07;;;;;;;-6.63;82.04;94714.81;4987165;28;20199;-78
2022/12/13 01:41:37;;;;;;;26.60;15.17;;;;;;;-6.65;81.68;94717.41;4998626;28;20187;-81
2022/12/13 01:44:44;;;;;;;29.03;16.03;;;;;;;-6.58;82.31;94716.28;4994371;28;20710;-79
2022/12/13 01:47:10;;;;;;;25.13;15.23;;;;;;;-6.66;81.54;94707.38;5008660;28;20190;-80
2022/12/13 01:49:35;;;;;;;24.10;15.17;;;;;;;-6.65;82.54;94707.31;4995128;28;20285;-81
2022/12/13 01:52:04;;;;;;;30.80;16.00;;;;;;;-6.63;82.21;94707.25;4990927;28;20195;-81
2022/12/13 01:54:35;;;;;;;26.70;14.50;;;;;;;-6.65;82.06;94703.97;4986491;28;20215;-80
2022/12/13 01:57:03;;;;;;;23.67;14.03;;;;;;;-6.72;82.01;94690.78;4993586;28;20218;-81
2022/12/13 01:59:28;;;;;;;24.47;14.70;;;;;;;-6.71;82.19;94687.41;4995054;28;20217;-80
2022/12/13 02:01:53;;;;;;;25.47;15.47;;;;;;;-6.76;81.98;94693.50;4990957;28;20195;-81
2022/12/13 02:04:29;;;;;;;25.00;15.37;;;;;;;-6.71;82.11;94689.09;4984701;28;20191;-81
2022/12/13 02:06:55;;;;;;;25.37;14.77;;;;;;;-6.70;82.38;94681.47;4999284;28;20183;-79
2022/12/13 02:09:21;;;;;;;27.40;15.53;;;;;;;-6.74;81.83;94682.47;4991853;28;20194;-79
2022/12/13 02:11:46;;;;;;;29.77;15.00;;;;;;;-6.78;82.47;94687.72;4997622;28;20198;-81
2022/12/13 02:14:11;;;;;;;26.23;15.90;;;;;;;-6.80;82.54;94690.31;4967445;28;20185;-81
2022/12/13 02:16:59;;;;;;;23.97;14.97;;;;;;;-6.80;82.23;94681.88;4976531;28;20211;-80
2022/12/13 02:19:42;;;;;;;25.03;14.70;;;;;;;-6.79;82.14;94689.44;4996059;28;20244;-80
2022/12/13 02:22:43;;;;;;;27.17;15.60;;;;;;;-6.84;82.31;94683.75;4991761;28;20184;-80
2022/12/13 02:25:26;;;;;;;27.43;14.97;;;;;;;-6.87;82.00;94679.66;4995770;28;20557;-81
2022/12/13 02:28:19;;;;;;;26.57;15.17;;;;;;;-6.89;83.07;94688.16;4973108;28;20179;-81
2022/12/13 02:30:50;;;;;;;26.73;14.73;;;;;;;-6.89;81.94;94680.56;4988603;28;20190;-80
2022/12/13 02:33:23;;;;;;;24.70;15.00;;;;;;;-6.86;82.30;94681.28;4989330;28;20431;-80
2022/12/13 02:36:04;;;;;;;28.97;15.73;;;;;;;-6.90;82.38;94681.47;4994001;28;20208;-80
2022/12/13 02:38:37;;;;;;;27.43;15.90;;;;;;;-6.96;82.26;94685.09;4994694;28;20209;-81
2022/12/13 02:41:18;;;;;;;27.07;15.30;;;;;;;-6.93;82.71;94684.13;4991543;28;20202;-81
2022/12/13 02:43:49;;;;;;;28.13;15.10;;;;;;;-6.98;82.60;94686.00;4993359;28;20249;-80
2022/12/13 02:46:20;;;;;;;26.87;15.07;;;;;;;-6.96;82.21;94677.50;5010462;28;20207;-81
2022/12/13 02:48:47;;;;;;;24.67;14.80;;;;;;;-6.97;82.89;94675.88;4989124;28;20270;-79
2022/12/13 02:51:13;;;;;;;25.80;14.93;;;;;;;-7.02;83.05;94671.91;4976214;28;20187;-81
2022/12/13 02:53:39;;;;;;;30.27;16.57;;;;;;;-7.02;82.50;94674.41;5003782;28;20192;-81
2022/12/13 02:56:05;;;;;;;28.20;15.67;;;;;;;-7.04;82.82;94669.44;4983251;28;20206;-81
2022/12/13 02:58:33;;;;;;;29.13;15.93;;;;;;;-7.02;82.94;94664.31;4994785;28;20273;-81
2022/12/13 03:01:24;;;;;;;23.67;14.70;;;;;;;-7.03;82.75;94663.50;4993448;28;20213;-80
2022/12/13 03:04:19;;;;;;;28.50;16.17;;;;;;;-7.03;83.14;94662.69;5005718;28;20201;-79
2022/12/13 03:07:03;;;;;;;28.20;15.60;;;;;;;-7.05;82.80;94656.91;4992317;28;20250;-81
2022/12/13 03:10:00;;;;;;;26.57;15.17;;;;;;;-7.01;83.09;94650.81;5005396;28;20261;-80
2022/12/13 03:15:33;;;;;;;30.37;18.10;;;;;;;-7.00;82.80;94649.94;4994384;28;20247;-80
2022/12/13 03:18:03;;;;;;;29.33;16.57;;;;;;;-7.11;83.35;94642.81;4977676;28;20214;-80
2022/12/13 03:20:29;;;;;;;30.93;16.77;;;;;;;-7.16;82.87;94650.56;4992127;28;20194;-80
2022/12/13 03:22:55;;;;;;;27.77;16.67;;;;;;;-7.19;83.92;94650.69;4997112;28;20201;-80
2022/12/13 03:25:22;;;;;;;31.97;17.77;;;;;;;-7.14;84.20;94653.88;5007861;28;20235;-80
2022/12/13 03:27:47;;;;;;;31.83;17.67;;;;;;;-7.10;83.53;94646.16;4986035;28;20284;-83
2022/12/13 03:30:12;;;;;;;26.77;16.23;;;;;;;-7.10;83.15;94651.19;5008844;28;20676;-78
2022/12/13 03:32:38;;;;;;;29.63;17.40;;;;;;;-7.18;83.67;94642.25;4991991;28;20215;-78
2022/12/13 03:35:03;;;;;;;29.77;17.40;;;;;;;-7.26;83.45;94646.78;4996927;28;20246;-81
2022/12/13 03:37:29;;;;;;;35.40;18.37;;;;;;;-7.17;84.10;94646.41;5007140;28;20215;-81
2022/12/13 03:39:54;;;;;;;29.97;16.37;;;;;;;-7.22;83.58;94647.50;4989132;28;20191;-79
2022/12/13 03:42:20;;;;;;;34.53;18.27;;;;;;;-7.19;83.50;94640.59;4993377;28;20182;-81
2022/12/13 03:44:45;;;;;;;34.03;17.50;;;;;;;-7.26;84.05;94640.94;4998299;28;20207;-81
2022/12/13 03:47:10;;;;;;;31.40;17.97;;;;;;;-7.29;84.53;94636.84;4979254;28;20181;-81
2022/12/13 03:49:36;;;;;;;29.30;17.87;;;;;;;-7.29;84.78;94631.78;4998772;28;20209;-81
2022/12/13 03:52:01;;;;;;;28.93;16.83;;;;;;;-7.19;84.22;94628.00;4994465;28;20198;-81
2022/12/13 03:54:26;;;;;;;31.90;17.50;;;;;;;-7.23;84.08;94628.19;4979628;28;20218;-80
2022/12/13 03:56:51;;;;;;;30.33;17.93;;;;;;;-7.23;84.58;94623.97;4995132;28;20211;-81
2022/12/13 03:59:17;;;;;;;34.00;19.03;;;;;;;-7.28;83.98;94635.13;4995824;28;20578;-80
2022/12/13 04:01:42;;;;;;;31.00;18.40;;;;;;;-7.37;84.35;94626.25;4998268;28;20194;-81
2022/12/13 04:04:07;;;;;;;35.00;17.80;;;;;;;-7.36;84.24;94625.34;4986700;28;20180;-80
2022/12/13 04:06:33;;;;;;;29.80;17.03;;;;;;;-7.32;84.83;94626.88;4988382;28;20281;-80
2022/12/13 04:08:58;;;;;;;31.97;17.57;;;;;;;-7.26;85.02;94635.88;4991639;28;20662;-80
2022/12/13 04:14:07;;;;;;;30.57;17.80;;;;;;;-7.34;84.75;94638.72;4993447;28;20251;-81
2022/12/13 04:16:33;;;;;;;31.70;17.93;;;;;;;-7.32;84.66;94626.88;5000352;28;20192;-80
2022/12/13 04:18:58;;;;;;;30.27;17.23;;;;;;;-7.32;84.65;94631.09;4975464;28;20765;-81
2022/12/13 04:21:24;;;;;;;29.07;17.03;;;;;;;-7.38;84.43;94629.66;4987053;28;20203;-80
2022/12/13 04:23:49;;;;;;;29.93;17.10;;;;;;;-7.42;84.76;94631.50;4989126;28;20198;-80
2022/12/13 04:26:14;;;;;;;29.30;17.23;;;;;;;-7.43;84.78;94626.47;5001076;28;20238;-80
2022/12/13 04:28:39;;;;;;;32.83;19.20;;;;;;;-7.52;84.66;94632.72;4989653;28;20198;-80
2022/12/13 04:31:05;;;;;;;29.73;17.50;;;;;;;-7.47;85.22;94630.84;4998554;28;20187;-78
2022/12/13 04:33:31;;;;;;;29.73;17.43;;;;;;;-7.45;84.89;94625.72;4997367;28;20191;-80
2022/12/13 04:35:57;;;;;;;32.97;17.97;;;;;;;-7.51;84.79;94629.34;4984720;28;20211;-80
2022/12/13 04:38:22;;;;;;;30.27;16.83;;;;;;;-7.40;84.87;94628.91;4986773;28;20494;-81
2022/12/13 04:40:47;;;;;;;31.70;17.50;;;;;;;-7.42;84.78;94625.59;4991676;28;20190;-80
2022/12/13 04:43:12;;;;;;;27.47;16.17;;;;;;;-7.38;84.78;94632.16;4994561;28;20201;-81
2022/12/13 04:45:38;;;;;;;31.07;17.13;;;;;;;-7.39;85.16;94630.53;4995810;28;20543;-80
2022/12/13 04:48:03;;;;;;;26.77;16.20;;;;;;;-7.40;85.00;94631.41;4996918;28;20185;-81
2022/12/13 04:50:29;;;;;;;29.33;15.50;;;;;;;-7.44;85.12;94627.38;4991988;28;20194;-80
2022/12/13 04:52:54;;;;;;;30.47;16.20;;;;;;;-7.40;84.77;94625.56;4999179;28;20660;-81
2022/12/13 04:55:19;;;;;;;29.03;16.37;;;;;;;-7.49;84.62;94630.09;4985554;28;20230;-81
2022/12/13 04:57:45;;;;;;;32.30;16.87;;;;;;;-7.46;84.58;94624.09;4989742;28;20215;-81
2022/12/13 05:00:12;;;;;;;30.57;15.77;;;;;;;-7.40;84.56;94633.94;4999921;28;20185;-79
2022/12/13 05:02:37;;;;;;;32.87;15.60;;;;;;;-7.40;84.62;94618.81;4982743;28;20188;-79
2022/12/13 05:05:03;;;;;;;29.80;15.90;;;;;;;-7.41;84.11;94617.19;4994083;28;20222;-79
2022/12/13 05:07:28;;;;;;;28.33;15.33;;;;;;;-7.37;84.71;94618.69;4994703;28;20683;-80
2022/12/13 05:09:53;;;;;;;26.90;14.93;;;;;;;-7.37;84.23;94617.84;4989610;28;20208;-81
2022/12/13 05:12:19;;;;;;;23.47;13.80;;;;;;;-7.36;84.42;94615.25;4997521;28;20180;-80
2022/12/13 05:14:44;;;;;;;28.60;14.77;;;;;;;-7.36;84.19;94619.50;4989077;28;20213;-80
2022/12/13 05:17:09;;;;;;;26.00;14.13;;;;;;;-7.44;84.04;94618.09;4994418;28;20227;-80
2022/12/13 05:19:34;;;;;;;28.17;15.37;;;;;;;-7.46;83.81;94611.50;4972564;28;20201;-80
2022/12/13 05:22:00;;;;;;;27.60;14.80;;;;;;;-7.48;83.57;94608.22;5003023;28;20187;-81
2022/12/13 05:24:25;;;;;;;28.20;15.23;;;;;;;-7.47;83.70;94613.19;4988793;28;20212;-81
2022/12/13 05:26:50;;;;;;;27.40;14.97;;;;;;;-7.44;84.26;94607.19;4988965;28;20191;-79
2022/12/13 05:29:16;;;;;;;27.50;15.27;;;;;;;-7.46;83.36;94608.97;4986138;28;20199;-81
2022/12/13 05:31:41;;;;;;;24.73;13.77;;;;;;;-7.48;83.53;94605.69;4986935;28;20259;-81
2022/12/13 05:34:07;;;;;;;25.43;14.20;;;;;;;-7.39;83.39;94604.50;5000103;28;20205;-81
2022/12/13 05:36:32;;;;;;;24.37;14.13;;;;;;;-7.42;83.38;94606.28;4996589;28;20201;-81
2022/12/13 05:38:57;;;;;;;23.17;12.97;;;;;;;-7.47;82.53;94607.34;4992395;28;20632;-80
2022/12/13 05:41:23;;;;;;;28.67;14.53;;;;;;;-7.50;82.77;94610.00;4987919;28;20198;-80
2022/12/13 05:43:49;;;;;;;24.23;13.90;;;;;;;-7.49;83.15;94609.91;4991281;28;20199;-80
2022/12/13 05:46:15;;;;;;;26.67;14.30;;;;;;;-7.62;84.34;94615.50;4977926;28;20286;-80
2022/12/13 05:48:40;;;;;;;26.07;14.43;;;;;;;-7.45;83.37;94611.41;4989035;28;20204;-81
2022/12/13 05:51:06;;;;;;;26.13;14.20;;;;;;;-7.46;83.82;94602.22;5007782;28;20709;-82
2022/12/13 05:53:31;;;;;;;24.27;14.37;;;;;;;-7.46;82.85;94606.44;4979967;28;20189;-81
2022/12/13 05:56:00;;;;;;;24.00;14.20;;;;;;;-7.57;83.56;94601.84;4983839;28;20209;-82
2022/12/13 05:58:26;;;;;;;24.47;14.77;;;;;;;-7.53;83.54;94607.56;5002381;28;20202;-81
2022/12/13 06:00:51;;;;;;;22.90;13.90;;;;;;;-7.49;83.37;94599.03;4994703;28;20190;-81
2022/12/13 06:03:16;;;;;;;28.57;14.87;;;;;;;-7.53;83.55;94605.06;4989181;28;20258;-82
2022/12/13 06:05:43;;;;;;;27.23;14.57;;;;;;;-7.61;83.06;94602.03;4993664;28;20214;-81
2022/12/13 06:08:09;;;;;;;24.37;13.67;;;;;;;-7.77;84.08;94599.31;4993593;28;20181;-81
2022/12/13 06:10:35;;;;;;;26.67;14.07;;;;;;;-7.75;84.24;94600.91;4989174;28;20182;-80
2022/12/13 06:13:01;;;;;;;23.93;13.77;;;;;;;-7.65;82.71;94603.88;4987166;28;20724;-82
2022/12/13 06:15:26;;;;;;;25.70;14.03;;;;;;;-7.67;83.15;94605.63;4988417;28;20253;-83
2022/12/13 06:17:51;;;;;;;22.17;13.73;;;;;;;-7.68;82.90;94590.53;4990135;28;20239;-80
2022/12/13 06:20:17;;;;;;;26.50;14.73;;;;;;;-7.72;84.08;94598.25;4985139;28;20197;-79
2022/12/13 06:22:42;;;;;;;24.13;13.60;;;;;;;-7.65;83.48;94603.03;4993356;28;20194;-83
2022/12/13 06:25:07;;;;;;;23.57;13.80;;;;;;;-7.68;83.41;94604.00;4982668;28;20212;-79
2022/12/13 06:27:33;;;;;;;26.83;14.50;;;;;;;-7.67;83.72;94597.25;4997316;28;20237;-79
2022/12/13 06:29:58;;;;;;;24.30;13.23;;;;;;;-7.66;83.07;94601.41;4996471;28;20190;-79
2022/12/13 06:32:23;;;;;;;23.97;13.17;;;;;;;-7.63;83.41;94588.66;4988809;28;20549;-82
2022/12/13 06:34:49;;;;;;;22.87;13.73;;;;;;;-7.63;83.46;94591.19;4992355;28;20228;-79
2022/12/13 06:37:14;;;;;;;25.77;13.90;;;;;;;-7.67;83.13;94589.69;4984530;28;20632;-79
2022/12/13 06:39:39;;;;;;;23.17;13.73;;;;;;;-7.70;83.15;94586.38;4995342;28;20634;-80
2022/12/13 06:42:06;;;;;;;22.93;12.97;;;;;;;-7.68;83.00;94593.91;5004496;28;20599;-81
2022/12/13 06:44:32;;;;;;;22.20;12.60;;;;;;;-7.75;83.10;94602.59;4998964;28;20221;-80
2022/12/13 06:46:59;;;;;;;23.60;13.03;;;;;;;-7.82;83.04;94607.06;5000372;28;20910;-80
2022/12/13 06:49:24;;;;;;;23.10;13.73;;;;;;;-7.76;83.80;94606.81;5018239;28;20189;-80
2022/12/13 06:51:49;;;;;;;23.90;12.93;;;;;;;-7.75;84.13;94608.47;4977052;28;20554;-82
2022/12/13 06:54:15;;;;;;;22.27;13.27;;;;;;;-7.68;83.04;94609.03;4980625;28;20196;-82
2022/12/13 06:56:40;;;;;;;22.60;13.30;;;;;;;-7.65;82.76;94624.03;4982408;28;20181;-82
2022/12/13 06:59:06;;;;;;;23.97;12.70;;;;;;;-7.70;82.50;94616.63;4983901;28;20231;-81
2022/12/13 07:01:31;;;;;;;22.50;12.20;;;;;;;-7.67;83.13;94625.81;4992476;28;20192;-80
2022/12/13 07:03:57;;;;;;;23.87;13.63;;;;;;;-7.71;82.60;94617.53;4979665;28;20190;-81
2022/12/13 07:06:23;;;;;;;21.00;12.23;;;;;;;-7.63;83.13;94627.31;5034921;23;20220;-82
2022/12/13 07:08:54;;;;;;;24.20;13.80;;;;;;;-7.72;82.87;94627.66;4967833;28;20212;-80
2022/12/13 07:11:21;;;;;;;22.90;12.57;;;;;;;-7.67;83.08;94623.28;4969990;28;20179;-81
2022/12/13 07:13:47;;;;;;;22.27;13.17;;;;;;;-7.65;82.55;94631.59;4967210;28;20674;-79
2022/12/13 07:43:52;;;;;;;20.23;12.53;;;;;;;-7.28;81.16;94625.84;4982813;28;20217;-82
2022/12/13 07:46:49;;;;;;;23.47;12.57;;;;;;;-7.16;80.71;94639.66;4977837;28;20269;-82
2022/12/13 07:49:14;;;;;;;21.83;12.73;;;;;;;-7.10;80.71;94641.94;4970201;28;20275;-81
2022/12/13 07:52:03;;;;;;;25.90;12.07;;;;;;;-7.33;82.21;94642.91;4986251;28;20650;-81
2022/12/13 07:58:53;;;;;;;19.27;11.67;;;;;;;-7.23;81.90;94646.69;4968210;28;20230;-81
2022/12/13 08:15:59;;;;;;;21.90;12.23;;;;;;;-6.95;80.45;94646.34;4816032;29;20369;-82
2022/12/13 08:18:44;;;;;;;22.87;12.90;;;;;;;-6.95;80.72;94651.38;4811546;29;20217;-82
2022/12/13 08:21:37;;;;;;;23.67;12.77;;;;;;;-6.92;80.47;94650.44;4805767;29;20237;-82
2022/12/13 08:24:15;;;;;;;25.47;13.00;;;;;;;-6.83;80.49;94647.50;4811808;29;20627;-81
2022/12/13 08:27:21;;;;;;;22.87;11.97;;;;;;;-6.77;80.24;94644.72;4807849;29;20215;-82
2022/12/13 08:30:00;;;;;;;21.23;12.37;;;;;;;-6.81;80.40;94647.44;4795542;29;20609;-82
2022/12/13 08:32:26;;;;;;;25.03;12.60;;;;;;;-6.72;80.13;94647.84;4811586;29;20209;-81
2022/12/13 08:45:25;;;;;;;20.57;11.97;;;;;;;-6.32;78.42;94651.97;4973438;28;20609;-82
2022/12/13 08:52:50;;;;;;;21.17;11.63;;;;;;;-6.31;78.24;94645.22;4929509;29;20231;-81
2022/12/13 08:59:57;;;;;;;;;;;;;;;;;;;;;
2022/12/13 09:03:19;;;;;;;;;;;;;;;;;;;;;
2022/12/13 09:30:05;;;;;;;18.13;11.43;;;;;;;-5.52;73.92;94654.13;4991741;28;20688;-79
2022/12/13 09:32:36;;;;;;;22.57;12.07;;;;;;;-5.27;73.86;94652.94;4927902;29;20200;-81
2022/12/13 09:35:07;;;;;;;24.90;13.60;;;;;;;-5.32;74.80;94657.41;4957324;28;20723;-82
2022/12/13 09:37:38;;;;;;;22.20;12.83;;;;;;;-5.43;74.84;94651.16;4941413;28;20221;-80
2022/12/13 09:40:04;;;;;;;17.80;9.97;;;;;;;-5.35;74.63;94662.63;4938838;28;20204;-81
2022/12/13 09:42:32;;;;;;;22.23;12.00;;;;;;;-5.26;74.26;94654.59;4946999;29;20207;-80
2022/12/13 09:45:10;;;;;;;23.47;12.07;;;;;;;-5.17;73.74;94654.13;4929147;29;20219;-80
2022/12/13 09:47:46;;;;;;;20.07;11.73;;;;;;;-5.09;73.80;94659.66;4947618;28;20560;-82
2022/12/13 09:50:28;;;;;;;20.67;11.23;;;;;;;-5.21;73.60;94662.78;4926682;29;20200;-83
2022/12/13 09:53:05;;;;;;;22.60;12.50;;;;;;;-5.13;73.90;94658.13;4931799;28;20258;-78
2022/12/13 09:56:14;;;;;;;21.93;12.07;;;;;;;-5.16;74.23;94655.78;4957380;28;20256;-80
2022/12/13 09:58:47;;;;;;;24.80;12.73;;;;;;;-5.14;73.52;94654.78;4943597;28;20247;-79
2022/12/13 10:01:12;;;;;;;21.27;12.57;;;;;;;-5.11;73.12;94653.03;4946825;28;20189;-78
2022/12/13 10:03:47;;;;;;;22.90;11.50;;;;;;;-5.17;74.31;94646.53;4992544;28;20196;-79
2022/12/13 10:06:20;;;;;;;20.97;12.10;;;;;;;-5.06;72.98;94649.34;5029292;28;20204;-79
2022/12/13 10:09:00;;;;;;;22.03;12.70;;;;;;;-4.99;72.86;94647.34;5031403;28;20191;-80
2022/12/13 10:11:29;;;;;;;22.63;12.30;;;;;;;-4.86;72.68;94648.34;5001494;28;20206;-79
2022/12/13 10:14:41;;;;;;;;;;;;;;;;;;;;;
2022/12/13 10:17:11;;;;;;;23.77;13.60;;;;;;;-4.88;72.85;94638.31;5025409;28;20211;-78
2022/12/13 10:19:50;;;;;;;29.93;16.07;;;;;;;-4.74;72.66;94626.66;5013995;28;20176;-81
2022/12/13 10:26:14;;;;;;;;;;;;;;;;;;;;;
2022/12/13 10:32:36;;;;;;;;;;;;;;;;;;;;;
2022/12/13 10:35:53;;;;;;;22.50;12.17;;;;;;;-4.91;72.31;94627.53;4903864;29;20260;-81
2022/12/13 10:46:29;;;;;;;20.60;11.87;;;;;;;-4.69;73.12;94609.50;4792822;29;20246;-79
2022/12/13 10:48:55;;;;;;;21.10;12.60;;;;;;;-4.49;72.99;94606.75;4779014;30;20178;-79
2022/12/13 10:51:51;;;;;;;27.50;13.43;;;;;;;-4.28;72.26;94600.56;4772595;29;20205;-78
2022/12/13 10:58:16;;;;;;;21.43;12.90;;;;;;;-4.28;70.81;94620.00;4791039;30;20249;-80
2022/12/13 11:00:50;;;;;;;20.77;12.20;;;;;;;-4.14;70.47;94604.88;4773137;29;20203;-79
2022/12/13 11:03:45;;;;;;;19.33;11.10;;;;;;;-4.23;70.63;94612.19;4818547;29;20195;-79
2022/12/13 11:06:16;;;;;;;23.67;12.67;;;;;;;-4.11;70.46;94607.25;4834961;29;20225;-79
2022/12/13 11:09:10;;;;;;;21.27;12.70;;;;;;;-3.95;70.04;94606.44;4833681;29;20269;-79
2022/12/13 11:11:44;;;;;;;20.80;12.47;;;;;;;-4.21;70.46;94597.69;4826761;29;20262;-78
2022/12/13 11:14:17;;;;;;;23.17;12.63;;;;;;;-4.06;70.32;94604.47;4835357;29;20303;-78
2022/12/13 11:16:46;;;;;;;22.67;12.77;;;;;;;-3.99;69.51;94593.91;4880308;29;20207;-79
2022/12/13 11:19:32;;;;;;;19.43;12.03;;;;;;;-3.79;69.68;94595.34;4904252;29;20190;-79
2022/12/13 11:22:03;;;;;;;19.50;12.53;;;;;;;-3.65;69.66;94593.75;4944551;29;20254;-79
2022/12/13 11:24:41;;;;;;;21.00;12.80;;;;;;;-3.73;69.16;94596.72;5016860;23;20195;-79
2022/12/13 11:27:44;;;;;;;23.27;11.93;;;;;;;-3.77;68.71;94585.13;4981823;28;20195;-79
2022/12/13 11:30:18;;;;;;;20.37;12.10;;;;;;;-3.72;69.14;94578.88;4988277;28;20194;-78
2022/12/13 11:32:53;;;;;;;22.57;12.73;;;;;;;-3.65;68.93;94574.28;5013152;28;20247;-82
2022/12/13 11:35:51;;;;;;;23.57;12.20;;;;;;;-3.63;69.77;94574.19;5007496;28;20247;-79
2022/12/13 11:38:27;;;;;;;21.53;13.57;;;;;;;-3.65;68.58;94565.84;4972589;28;20205;-80
2022/12/13 11:40:58;;;;;;;26.60;13.83;;;;;;;-3.46;68.30;94576.59;4959667;28;20212;-80
2022/12/13 11:43:42;;;;;;;24.17;12.37;;;;;;;-3.43;68.11;94573.91;4960950;28;20181;-81
2022/12/13 11:46:16;;;;;;;22.27;12.63;;;;;;;-3.39;68.44;94587.22;4971930;28;20244;-80
2022/12/13 11:48:49;;;;;;;22.80;12.37;;;;;;;-3.37;67.76;94583.69;4979779;28;20179;-80
2022/12/13 11:51:26;;;;;;;19.13;12.30;;;;;;;-3.42;67.99;94591.56;4965714;28;20173;-81
2022/12/13 11:53:56;;;;;;;21.67;12.43;;;;;;;-3.51;67.92;94581.94;4964709;28;20207;-82
2022/12/13 11:56:42;;;;;;;22.23;12.37;;;;;;;-3.19;68.15;94575.00;4977287;28;20193;-80
2022/12/13 11:59:44;;;;;;;22.33;13.83;;;;;;;-3.17;67.75;94578.28;4979342;28;20185;-79
2022/12/13 12:02:39;;;;;;;25.07;13.13;;;;;;;-3.32;67.69;94568.19;4922180;29;20230;-79
2022/12/13 12:05:16;;;;;;;22.97;13.13;;;;;;;-3.10;67.83;94566.03;4883512;29;20212;-81
2022/12/13 12:07:50;;;;;;;25.57;12.73;;;;;;;-3.05;67.81;94566.59;4883492;29;20191;-80
2022/12/13 12:10:48;;;;;;;22.47;13.13;;;;;;;-3.00;67.75;94562.06;4862142;29;20204;-81
2022/12/13 12:13:28;;;;;;;25.90;13.63;;;;;;;-3.16;67.92;94564.69;4770956;30;20212;-81
2022/12/13 12:16:02;;;;;;;20.07;12.57;;;;;;;-3.20;67.88;94560.66;4775328;30;20227;-81
2022/12/13 12:18:28;;;;;;;24.63;13.10;;;;;;;-3.16;67.54;94553.72;4789504;30;20341;-82
2022/12/13 12:21:03;;;;;;;30.63;13.67;;;;;;;-3.21;68.25;94551.44;4774980;30;20204;-79
2022/12/13 12:24:04;;;;;;;25.03;13.03;;;;;;;-2.99;68.40;94557.81;4783263;30;20204;-82
2022/12/13 12:26:43;;;;;;;21.60;11.77;;;;;;;-2.86;67.75;94548.53;4789333;30;20219;-82
2022/12/13 12:29:12;;;;;;;23.57;13.17;;;;;;;-3.00;67.04;94554.44;4774353;30;20207;-80
2022/12/13 12:31:55;;;;;;;25.10;13.20;;;;;;;-3.10;67.89;94552.50;4791703;29;20236;-78
2022/12/13 12:34:48;;;;;;;22.17;12.50;;;;;;;-3.30;67.91;94549.41;4791093;29;20207;-80
2022/12/13 12:37:25;;;;;;;22.53;13.73;;;;;;;-3.19;68.12;94554.69;4791656;29;20295;-81
2022/12/13 12:40:06;;;;;;;24.63;12.90;;;;;;;-3.40;68.47;94550.03;4790161;29;20194;-80
2022/12/13 12:42:56;;;;;;;23.73;13.37;;;;;;;-3.31;69.13;94547.78;4862458;29;20201;-81
2022/12/13 12:45:37;;;;;;;26.67;13.90;;;;;;;-3.28;68.95;94551.88;4881526;29;20200;-80
2022/12/13 12:48:41;;;;;;;26.20;15.43;;;;;;;-3.19;69.28;94544.53;4887502;28;20204;-80
2022/12/13 12:51:14;;;;;;;28.73;13.80;;;;;;;-3.20;69.47;94537.81;4989108;28;20216;-80
2022/12/13 12:53:52;;;;;;;25.67;14.37;;;;;;;-3.06;69.66;94533.66;4971295;28;20164;-81
2022/12/13 12:56:27;;;;;;;23.90;12.53;;;;;;;-3.19;69.85;94539.44;4961989;28;20201;-82
2022/12/13 12:59:05;;;;;;;25.03;12.90;;;;;;;-3.01;69.23;94536.72;4981768;28;20219;-81
2022/12/13 13:01:54;;;;;;;25.03;13.33;;;;;;;-3.04;68.75;94537.75;4978986;28;20200;-80
2022/12/13 13:04:25;;;;;;;25.83;13.77;;;;;;;-3.00;68.53;94540.94;4961814;28;20199;-82
2022/12/13 13:06:58;;;;;;;25.77;14.77;;;;;;;-3.07;68.88;94539.66;4971829;28;20273;-80
2022/12/13 13:09:24;;;;;;;22.00;13.67;;;;;;;-3.11;68.96;94526.31;4964089;28;20209;-83
2022/12/13 13:11:50;;;;;;;25.57;14.93;;;;;;;-3.00;69.34;94529.06;4943869;28;20189;-83
2022/12/13 13:14:27;;;;;;;27.00;14.73;;;;;;;-2.86;69.53;94530.75;4969393;28;20676;-82
2022/12/13 13:16:54;;;;;;;24.40;14.30;;;;;;;-2.88;69.07;94528.31;4935411;28;20227;-82
2022/12/13 13:19:19;;;;;;;25.40;14.23;;;;;;;-2.85;68.38;94528.13;4941334;28;20715;-82
2022/12/13 13:21:46;;;;;;;24.07;14.13;;;;;;;-3.00;69.11;94525.69;4957692;28;20193;-83
2022/12/13 13:24:16;;;;;;;25.87;14.40;;;;;;;-2.99;69.99;94522.25;4971638;28;20228;-82
2022/12/13 13:26:59;;;;;;;24.17;14.33;;;;;;;-3.11;70.46;94518.69;4939008;28;20189;-81
2022/12/13 13:29:25;;;;;;;23.37;14.10;;;;;;;-3.10;70.04;94515.22;4954043;28;20291;-82
2022/12/13 13:32:00;;;;;;;27.27;14.13;;;;;;;-2.99;70.41;94512.09;4966278;28;20601;-85
2022/12/13 13:34:34;;;;;;;24.80;13.80;;;;;;;-3.06;70.24;94513.34;4950715;28;20211;-81
2022/12/13 13:37:00;;;;;;;22.60;14.33;;;;;;;-2.86;70.42;94531.56;4956703;28;20202;-81
2022/12/13 13:39:32;;;;;;;27.23;14.33;;;;;;;-2.80;69.77;94529.56;4950794;28;20193;-81
2022/12/13 13:42:08;;;;;;;25.93;13.87;;;;;;;-2.90;69.65;94534.41;4953605;28;20196;-82